createdAt,value
2022-09-25T00:00:59.920Z,98756.25
2022-09-25T00:02:02.275Z,98746.75
2022-09-25T00:03:04.575Z,98740.56
2022-09-25T00:04:06.824Z,98745.06
2022-09-25T00:05:09.151Z,98745.91
2022-09-25T00:06:17.045Z,98747.34
2022-09-25T00:07:19.270Z,98749.50
2022-09-25T00:08:21.508Z,98752.31
2022-09-25T00:09:23.705Z,98751.66
2022-09-25T00:10:28.782Z,98749.78
2022-09-25T00:11:32.874Z,98753.75
2022-09-25T00:12:35.985Z,98744.88
2022-09-25T00:13:40.377Z,98740.81
2022-09-25T00:14:42.580Z,98742.72
2022-09-25T00:15:51.772Z,98742.34
2022-09-25T00:16:54.110Z,98742.81
2022-09-25T00:17:56.392Z,98734.38
2022-09-25T00:19:18.048Z,98744.78
2022-09-25T00:20:26.609Z,98742.28
2022-09-25T00:21:31.295Z,98740.09
2022-09-25T00:22:33.779Z,98742.63
2022-09-25T00:23:36.110Z,98736.72
2022-09-25T00:24:38.351Z,98742.91
2022-09-25T00:25:40.799Z,98733.47
2022-09-25T00:26:43.435Z,98737.38
2022-09-25T00:27:45.834Z,98739.03
2022-09-25T00:28:48.101Z,98740.25
2022-09-25T00:29:50.367Z,98737.94
2022-09-25T00:30:52.723Z,98729.72
2022-09-25T00:31:55.478Z,98737.44
2022-09-25T00:32:57.779Z,98737.53
2022-09-25T00:34:02.090Z,98733.31
2022-09-25T00:35:05.142Z,98727.56
2022-09-25T00:36:09.418Z,98730.28
2022-09-25T00:37:11.567Z,98729.63
2022-09-25T00:38:13.866Z,98729.06
2022-09-25T00:39:16.162Z,98723.53
2022-09-25T00:40:19.660Z,98723.25
2022-09-25T00:41:24.091Z,98729.84
2022-09-25T00:42:26.619Z,98732.22
2022-09-25T00:43:37.477Z,98725.53
2022-09-25T00:44:57.783Z,98734.28
2022-09-25T00:46:02.835Z,98730.72
2022-09-25T00:47:05.464Z,98729.66
2022-09-25T00:48:13.517Z,98732.19
2022-09-25T00:49:17.393Z,98737.09
2022-09-25T00:50:34.052Z,98740.84
2022-09-25T00:51:41.570Z,98741.59
2022-09-25T00:52:44.683Z,98726.06
2022-09-25T00:53:47.661Z,98731.69
2022-09-25T00:54:58.774Z,98726.78
2022-09-25T00:56:03.206Z,98720.22
2022-09-25T00:57:11.085Z,98717.22
2022-09-25T00:58:16.670Z,98716.75
2022-09-25T00:59:22.582Z,98729.28
2022-09-25T01:00:25.000Z,98717.06
2022-09-25T01:01:27.747Z,98736.50
2022-09-25T01:02:42.218Z,98733.41
2022-09-25T01:03:46.298Z,98732.56
2022-09-25T01:04:49.049Z,98720.41
2022-09-25T01:05:52.770Z,98732.72
2022-09-25T01:06:56.033Z,98729.72
2022-09-25T01:08:01.175Z,98726.78
2022-09-25T01:09:03.532Z,98726.91
2022-09-25T01:10:08.012Z,98724.53
2022-09-25T01:11:10.435Z,98721.13
2022-09-25T01:12:17.045Z,98713.34
2022-09-25T01:13:20.274Z,98723.69
2022-09-25T01:14:22.886Z,98710.72
2022-09-25T01:16:00.172Z,98706.28
2022-09-25T01:17:10.325Z,98714.19
2022-09-25T01:18:31.760Z,98712.84
2022-09-25T01:19:48.751Z,98707.97
2022-09-25T01:21:13.445Z,98706.09
2022-09-25T01:22:43.295Z,98714.94
2022-09-25T01:24:22.584Z,98713.16
2022-09-25T01:25:56.912Z,98710.25
2022-09-25T01:27:20.657Z,98705.63
2022-09-25T01:28:29.628Z,98707.56
2022-09-25T01:29:53.547Z,98704.84
2022-09-25T01:31:04.588Z,98699.69
2022-09-25T01:32:33.670Z,98701.31
2022-09-25T01:33:46.209Z,98699.97
2022-09-25T01:35:06.748Z,98701.66
2022-09-25T01:36:18.037Z,98692.81
2022-09-25T01:37:33.931Z,98696.78
2022-09-25T01:38:42.805Z,98694.31
2022-09-25T01:39:59.358Z,98698.66
2022-09-25T01:41:19.626Z,98695.25
2022-09-25T01:42:31.501Z,98696.97
2022-09-25T01:44:03.179Z,98701.47
2022-09-25T01:45:10.936Z,98688.56
2022-09-25T01:46:21.680Z,98686.50
2022-09-25T01:47:28.375Z,98676.91
2022-09-25T01:48:33.576Z,98686.31
2022-09-25T01:49:42.127Z,98681.53
2022-09-25T01:50:57.347Z,98693.78
2022-09-25T01:52:02.878Z,98689.66
2022-09-25T01:53:12.096Z,98692.16
2022-09-25T01:54:24.900Z,98684.94
2022-09-25T01:55:36.018Z,98683.81
2022-09-25T01:56:54.118Z,98687.00
2022-09-25T01:58:05.258Z,98686.06
2022-09-25T01:59:16.481Z,98685.50
2022-09-25T02:00:21.917Z,98679.56
2022-09-25T02:01:30.442Z,98687.94
2022-09-25T02:02:39.926Z,98672.88
2022-09-25T02:03:48.403Z,98670.81
2022-09-25T02:05:16.092Z,98679.94
2022-09-25T02:06:20.913Z,98675.69
2022-09-25T02:07:30.001Z,98673.34
2022-09-25T02:08:46.721Z,98669.47
2022-09-25T02:09:52.850Z,98677.78
2022-09-25T02:11:02.131Z,98675.34
2022-09-25T02:12:18.641Z,98676.56
2022-09-25T02:13:22.521Z,98678.53
2022-09-25T02:14:35.273Z,98677.59
2022-09-25T02:15:54.384Z,98674.88
2022-09-25T02:16:58.694Z,98675.91
2022-09-25T02:18:23.481Z,98679.66
2022-09-25T02:19:44.936Z,98682.69
2022-09-25T02:20:53.343Z,98674.47
2022-09-25T02:22:07.464Z,98674.00
2022-09-25T02:23:40.403Z,98675.72
2022-09-25T02:24:58.896Z,98678.16
2022-09-25T02:26:09.605Z,98673.34
2022-09-25T02:27:11.854Z,98668.94
2022-09-25T02:28:14.159Z,98670.53
2022-09-25T02:29:17.241Z,98667.63
2022-09-25T02:30:20.364Z,98676.25
2022-09-25T02:31:30.989Z,98673.28
2022-09-25T02:32:33.337Z,98684.19
2022-09-25T02:33:35.887Z,98670.34
2022-09-25T02:34:38.970Z,98670.25
2022-09-25T02:35:42.284Z,98674.09
2022-09-25T02:36:44.791Z,98678.72
2022-09-25T02:37:47.213Z,98671.00
2022-09-25T02:38:51.827Z,98673.81
2022-09-25T02:39:58.139Z,98676.19
2022-09-25T02:41:23.186Z,98671.28
2022-09-25T02:42:45.164Z,98677.03
2022-09-25T02:44:05.270Z,98668.19
2022-09-25T02:46:03.048Z,98666.75
2022-09-25T02:47:19.630Z,98670.53
2022-09-25T02:48:49.606Z,98667.63
2022-09-25T02:50:10.854Z,98660.91
2022-09-25T02:51:34.706Z,98660.19
2022-09-25T02:52:39.569Z,98662.44
2022-09-25T02:53:46.993Z,98662.25
2022-09-25T02:54:59.453Z,98653.22
2022-09-25T02:56:24.389Z,98659.53
2022-09-25T02:57:48.713Z,98665.75
2022-09-25T02:58:54.871Z,98661.03
2022-09-25T03:00:01.490Z,98658.19
2022-09-25T03:01:07.674Z,98660.00
2022-09-25T03:02:11.881Z,98652.94
2022-09-25T03:03:16.780Z,98653.69
2022-09-25T03:04:20.051Z,98659.53
2022-09-25T03:05:25.012Z,98662.34
2022-09-25T03:06:28.360Z,98663.38
2022-09-25T03:07:51.985Z,98659.16
2022-09-25T03:08:58.262Z,98656.13
2022-09-25T03:10:00.599Z,98654.28
2022-09-25T03:11:03.887Z,98654.72
2022-09-25T03:12:06.150Z,98660.84
2022-09-25T03:13:23.111Z,98650.78
2022-09-25T03:14:27.063Z,98654.81
2022-09-25T03:15:29.288Z,98650.28
2022-09-25T03:16:57.264Z,98652.56
2022-09-25T03:17:59.960Z,98647.09
2022-09-25T03:19:03.005Z,98655.88
2022-09-25T03:20:07.034Z,98655.88
2022-09-25T03:21:09.226Z,98656.13
2022-09-25T03:22:11.964Z,98651.72
2022-09-25T03:23:14.221Z,98650.03
2022-09-25T03:24:17.025Z,98650.50
2022-09-25T03:25:19.379Z,98647.28
2022-09-25T03:26:21.767Z,98649.19
2022-09-25T03:27:28.727Z,98646.91
2022-09-25T03:28:31.527Z,98657.34
2022-09-25T03:29:33.732Z,98647.84
2022-09-25T03:30:37.418Z,98643.81
2022-09-25T03:31:41.069Z,98650.84
2022-09-25T03:32:43.523Z,98652.81
2022-09-25T03:33:46.631Z,98647.28
2022-09-25T03:34:48.956Z,98647.84
2022-09-25T03:36:03.254Z,98640.59
2022-09-25T03:37:05.495Z,98645.59
2022-09-25T03:38:08.685Z,98644.47
2022-09-25T03:39:11.066Z,98642.78
2022-09-25T03:40:13.418Z,98643.44
2022-09-25T03:41:20.140Z,98637.03
2022-09-25T03:42:22.433Z,98636.47
2022-09-25T03:43:24.649Z,98642.50
2022-09-25T03:44:26.837Z,98645.31
2022-09-25T03:45:29.123Z,98652.84
2022-09-25T03:46:34.612Z,98652.00
2022-09-25T03:47:36.957Z,98646.00
2022-09-25T03:48:40.187Z,98653.78
2022-09-25T03:49:42.360Z,98648.63
2022-09-25T03:50:46.091Z,98648.50
2022-09-25T03:51:48.464Z,98641.66
2022-09-25T03:52:50.623Z,98646.84
2022-09-25T03:53:53.534Z,98652.00
2022-09-25T03:54:55.913Z,98645.69
2022-09-25T03:55:58.190Z,98650.75
2022-09-25T03:57:00.421Z,98654.81
2022-09-25T03:58:02.670Z,98656.22
2022-09-25T03:59:04.894Z,98659.91
2022-09-25T04:00:07.713Z,98646.53
2022-09-25T04:01:19.304Z,98651.25
2022-09-25T04:02:21.714Z,98649.47
2022-09-25T04:03:28.426Z,98656.59
2022-09-25T04:04:30.754Z,98651.63
2022-09-25T04:05:33.232Z,98656.13
2022-09-25T04:06:36.213Z,98649.91
2022-09-25T04:07:38.439Z,98650.50
2022-09-25T04:08:41.429Z,98648.13
2022-09-25T04:09:44.331Z,98648.88
2022-09-25T04:10:46.562Z,98643.59
2022-09-25T04:11:48.983Z,98649.56
2022-09-25T04:12:54.293Z,98644.75
2022-09-25T04:13:57.269Z,98642.41
2022-09-25T04:14:59.615Z,98645.31
2022-09-25T04:16:04.914Z,98646.53
2022-09-25T04:17:07.737Z,98646.63
2022-09-25T04:18:09.939Z,98640.81
2022-09-25T04:19:12.293Z,98633.09
2022-09-25T04:20:14.506Z,98637.59
2022-09-25T04:21:16.876Z,98636.38
2022-09-25T04:22:19.243Z,98638.06
2022-09-25T04:23:21.498Z,98639.56
2022-09-25T04:24:41.998Z,98633.44
2022-09-25T04:25:45.764Z,98629.13
2022-09-25T04:26:48.013Z,98631.41
2022-09-25T04:27:50.182Z,98626.22
2022-09-25T04:28:52.513Z,98623.59
2022-09-25T04:29:54.810Z,98625.44
2022-09-25T04:30:57.188Z,98631.50
2022-09-25T04:32:18.098Z,98625.91
2022-09-25T04:33:38.610Z,98627.06
2022-09-25T04:34:40.819Z,98638.72
2022-09-25T04:35:43.173Z,98634.31
2022-09-25T04:36:45.321Z,98635.25
2022-09-25T04:37:47.683Z,98632.41
2022-09-25T04:38:49.940Z,98635.16
2022-09-25T04:39:58.553Z,98633.56
2022-09-25T04:41:01.925Z,98637.59
2022-09-25T04:42:04.297Z,98631.75
2022-09-25T04:43:07.400Z,98643.50
2022-09-25T04:44:09.613Z,98638.44
2022-09-25T04:45:11.823Z,98645.56
2022-09-25T04:46:20.914Z,98634.13
2022-09-25T04:47:26.294Z,98635.25
2022-09-25T04:48:29.205Z,98640.03
2022-09-25T04:49:31.490Z,98637.19
2022-09-25T04:50:34.626Z,98631.84
2022-09-25T04:51:39.886Z,98636.16
2022-09-25T04:52:42.049Z,98640.53
2022-09-25T04:53:44.329Z,98637.13
2022-09-25T04:54:47.600Z,98643.81
2022-09-25T04:55:49.857Z,98631.50
2022-09-25T04:56:52.342Z,98631.09
2022-09-25T04:57:59.287Z,98634.66
2022-09-25T04:59:01.939Z,98625.06
2022-09-25T05:00:06.132Z,98633.25
2022-09-25T05:01:09.817Z,98637.22
2022-09-25T05:02:12.944Z,98639.88
2022-09-25T05:03:15.447Z,98639.00
2022-09-25T05:04:17.742Z,98628.75
2022-09-25T05:05:20.415Z,98640.59
2022-09-25T05:06:23.182Z,98636.84
2022-09-25T05:07:25.476Z,98642.28
2022-09-25T05:08:27.838Z,98642.69
2022-09-25T05:09:30.715Z,98644.56
2022-09-25T05:10:39.605Z,98641.00
2022-09-25T05:11:41.866Z,98636.59
2022-09-25T05:12:45.119Z,98638.25
2022-09-25T05:13:51.258Z,98641.63
2022-09-25T05:14:53.568Z,98646.25
2022-09-25T05:15:56.383Z,98637.50
2022-09-25T05:16:58.700Z,98639.94
2022-09-25T05:18:16.607Z,98636.00
2022-09-25T05:19:18.881Z,98645.97
2022-09-25T05:20:21.121Z,98631.28
2022-09-25T05:21:23.309Z,98631.69
2022-09-25T05:22:25.505Z,98639.38
2022-09-25T05:23:27.803Z,98634.88
2022-09-25T05:24:31.163Z,98635.81
2022-09-25T05:25:33.390Z,98637.22
2022-09-25T05:26:37.349Z,98635.81
2022-09-25T05:27:39.533Z,98636.06
2022-09-25T05:28:41.735Z,98632.63
2022-09-25T05:29:43.945Z,98638.25
2022-09-25T05:30:46.166Z,98632.88
2022-09-25T05:31:49.810Z,98633.84
2022-09-25T05:32:53.198Z,98626.41
2022-09-25T05:33:55.466Z,98629.50
2022-09-25T05:34:57.792Z,98625.66
2022-09-25T05:36:01.769Z,98625.47
2022-09-25T05:37:03.974Z,98624.53
2022-09-25T05:38:06.755Z,98622.16
2022-09-25T05:39:14.219Z,98626.41
2022-09-25T05:40:19.464Z,98629.22
2022-09-25T05:41:21.764Z,98629.13
2022-09-25T05:42:23.966Z,98630.19
2022-09-25T05:43:26.544Z,98625.16
2022-09-25T05:44:28.747Z,98629.13
2022-09-25T05:45:31.330Z,98629.81
2022-09-25T05:46:33.997Z,98633.06
2022-09-25T05:47:36.189Z,98632.13
2022-09-25T05:48:38.596Z,98637.03
2022-09-25T05:49:40.915Z,98637.59
2022-09-25T05:50:43.116Z,98645.97
2022-09-25T05:51:45.355Z,98647.09
2022-09-25T05:52:55.565Z,98649.91
2022-09-25T05:53:58.160Z,98650.28
2022-09-25T05:55:00.885Z,98652.28
2022-09-25T05:56:05.147Z,98646.91
2022-09-25T05:57:07.346Z,98651.06
2022-09-25T05:58:09.543Z,98653.31
2022-09-25T05:59:11.706Z,98647.56
2022-09-25T06:00:15.074Z,98656.03
2022-09-25T06:01:17.623Z,98654.06
2022-09-25T06:02:19.910Z,98661.28
2022-09-25T06:03:22.577Z,98655.03
2022-09-25T06:04:25.276Z,98658.28
2022-09-25T06:05:27.518Z,98659.81
2022-09-25T06:06:31.718Z,98666.19
2022-09-25T06:07:33.949Z,98661.03
2022-09-25T06:08:36.409Z,98662.72
2022-09-25T06:09:38.677Z,98677.59
2022-09-25T06:10:41.640Z,98673.06
2022-09-25T06:11:47.345Z,98675.44
2022-09-25T06:12:49.631Z,98678.72
2022-09-25T06:13:54.697Z,98679.66
2022-09-25T06:14:57.669Z,98681.56
2022-09-25T06:16:00.659Z,98687.09
2022-09-25T06:17:03.601Z,98689.72
2022-09-25T06:18:06.681Z,98686.34
2022-09-25T06:19:08.952Z,98680.13
2022-09-25T06:20:15.898Z,98686.34
2022-09-25T06:21:18.611Z,98689.16
2022-09-25T06:22:20.798Z,98686.34
2022-09-25T06:23:23.128Z,98686.16
2022-09-25T06:24:25.569Z,98696.69
2022-09-25T06:25:30.791Z,98696.03
2022-09-25T06:26:33.978Z,98692.53
2022-09-25T06:27:36.984Z,98682.50
2022-09-25T06:28:39.495Z,98690.00
2022-09-25T06:29:41.778Z,98692.53
2022-09-25T06:30:45.367Z,98695.38
2022-09-25T06:31:47.627Z,98690.59
2022-09-25T06:32:57.579Z,98687.28
2022-09-25T06:34:01.331Z,98696.25
2022-09-25T06:35:04.343Z,98691.88
2022-09-25T06:36:06.603Z,98696.34
2022-09-25T06:37:09.000Z,98699.25
2022-09-25T06:38:12.318Z,98690.97
2022-09-25T06:39:14.567Z,98690.97
2022-09-25T06:40:16.780Z,98699.25
2022-09-25T06:41:19.026Z,98697.72
2022-09-25T06:42:21.743Z,98700.00
2022-09-25T06:43:23.975Z,98699.44
2022-09-25T06:44:28.888Z,98699.44
2022-09-25T06:45:58.995Z,98709.22
2022-09-25T06:47:38.661Z,98703.97
2022-09-25T06:48:45.035Z,98710.16
2022-09-25T06:49:55.052Z,98709.38
2022-09-25T06:50:59.651Z,98711.28
2022-09-25T06:52:01.887Z,98703.59
2022-09-25T06:53:04.160Z,98706.59
2022-09-25T06:54:06.859Z,98710.53
2022-09-25T06:55:09.158Z,98711.66
2022-09-25T06:56:12.350Z,98708.47
2022-09-25T06:57:14.905Z,98716.00
2022-09-25T06:58:23.124Z,98714.06
2022-09-25T06:59:25.911Z,98703.00
2022-09-25T07:00:28.172Z,98713.34
2022-09-25T07:01:30.611Z,98706.09
2022-09-25T07:02:51.952Z,98699.63
2022-09-25T07:03:54.328Z,98695.47
2022-09-25T07:04:56.646Z,98699.88
2022-09-25T07:06:03.333Z,98703.47
2022-09-25T07:07:05.795Z,98699.41
2022-09-25T07:08:08.250Z,98705.63
2022-09-25T07:09:10.624Z,98701.59
2022-09-25T07:10:13.096Z,98697.66
2022-09-25T07:11:18.101Z,98700.84
2022-09-25T07:12:21.871Z,98692.97
2022-09-25T07:13:26.478Z,98707.81
2022-09-25T07:14:28.829Z,98709.31
2022-09-25T07:15:31.316Z,98705.16
2022-09-25T07:16:34.440Z,98704.16
2022-09-25T07:17:36.849Z,98712.97
2022-09-25T07:19:01.243Z,98714.00
2022-09-25T07:20:08.253Z,98710.34
2022-09-25T07:21:13.401Z,98718.44
2022-09-25T07:22:16.387Z,98717.69
2022-09-25T07:23:20.277Z,98717.59
2022-09-25T07:24:22.651Z,98715.59
2022-09-25T07:25:24.885Z,98723.13
2022-09-25T07:26:29.560Z,98720.59
2022-09-25T07:27:32.149Z,98723.31
2022-09-25T07:28:35.214Z,98725.41
2022-09-25T07:29:37.638Z,98724.94
2022-09-25T07:30:41.455Z,98721.84
2022-09-25T07:31:43.948Z,98713.06
2022-09-25T07:32:46.472Z,98717.06
2022-09-25T07:33:49.190Z,98708.97
2022-09-25T07:34:51.742Z,98714.25
2022-09-25T07:35:53.990Z,98721.94
2022-09-25T07:36:56.351Z,98720.69
2022-09-25T07:37:58.631Z,98718.53
2022-09-25T07:39:01.382Z,98722.50
2022-09-25T07:40:03.846Z,98715.63
2022-09-25T07:41:07.970Z,98710.66
2022-09-25T07:42:10.737Z,98721.19
2022-09-25T07:43:13.028Z,98720.56
2022-09-25T07:44:36.290Z,98715.75
2022-09-25T07:45:37.706Z,98721.97
2022-09-25T07:46:44.268Z,98721.84
2022-09-25T07:47:46.888Z,98725.31
2022-09-25T07:48:50.221Z,98727.94
2022-09-25T07:49:54.394Z,98734.03
2022-09-25T07:51:00.231Z,98728.69
2022-09-25T07:52:06.025Z,98738.31
2022-09-25T07:53:08.437Z,98734.13
2022-09-25T07:54:10.902Z,98746.34
2022-09-25T07:55:13.380Z,98731.28
2022-09-25T07:56:17.671Z,98735.75
2022-09-25T07:57:20.673Z,98737.09
2022-09-25T07:58:23.120Z,98745.81
2022-09-25T07:59:25.497Z,98744.81
2022-09-25T08:00:28.005Z,98744.47
2022-09-25T08:01:30.326Z,98747.75
2022-09-25T08:02:35.195Z,98742.22
2022-09-25T08:03:37.646Z,98740.13
2022-09-25T08:04:40.068Z,98746.91
2022-09-25T08:05:42.335Z,98735.22
2022-09-25T08:06:44.707Z,98744.59
2022-09-25T08:07:47.066Z,98736.22
2022-09-25T08:08:49.413Z,98740.53
2022-09-25T08:09:51.995Z,98743.03
2022-09-25T08:10:59.793Z,98744.66
2022-09-25T08:12:02.452Z,98752.06
2022-09-25T08:13:04.999Z,98759.31
2022-09-25T08:14:07.508Z,98754.72
2022-09-25T08:15:10.651Z,98753.97
2022-09-25T08:16:18.411Z,98749.81
2022-09-25T08:17:22.147Z,98750.09
2022-09-25T08:18:24.484Z,98759.41
2022-09-25T08:19:27.902Z,98755.06
2022-09-25T08:20:30.247Z,98759.41
2022-09-25T08:21:34.045Z,98750.66
2022-09-25T08:22:36.514Z,98759.19
2022-09-25T08:23:38.842Z,98757.44
2022-09-25T08:24:41.290Z,98762.78
2022-09-25T08:25:48.296Z,98761.97
2022-09-25T08:26:50.678Z,98759.28
2022-09-25T08:27:53.141Z,98760.78
2022-09-25T08:28:56.803Z,98764.00
2022-09-25T08:29:59.203Z,98758.19
2022-09-25T08:31:04.011Z,98765.19
2022-09-25T08:32:06.907Z,98771.25
2022-09-25T08:33:15.425Z,98763.50
2022-09-25T08:34:39.890Z,98771.41
2022-09-25T08:35:41.469Z,98771.06
2022-09-25T08:36:44.264Z,98773.03
2022-09-25T08:37:48.699Z,98769.44
2022-09-25T08:38:53.200Z,98769.06
2022-09-25T08:39:55.815Z,98768.63
2022-09-25T08:41:15.736Z,98766.00
2022-09-25T08:42:30.124Z,98771.19
2022-09-25T08:43:35.225Z,98760.06
2022-09-25T08:44:56.932Z,98768.41
2022-09-25T08:46:34.351Z,98768.53
2022-09-25T08:47:56.621Z,98771.34
2022-09-25T08:49:02.477Z,98777.31
2022-09-25T08:50:12.559Z,98778.72
2022-09-25T08:51:18.799Z,98788.03
2022-09-25T08:52:22.878Z,98779.00
2022-09-25T08:53:27.106Z,98775.56
2022-09-25T08:54:32.117Z,98783.81
2022-09-25T08:55:57.938Z,98777.78
2022-09-25T08:57:07.233Z,98790.03
2022-09-25T08:58:10.289Z,98782.66
2022-09-25T08:59:26.196Z,98792.00
2022-09-25T09:00:29.284Z,98782.88
2022-09-25T09:01:44.769Z,98792.81
2022-09-25T09:02:53.154Z,98787.41
2022-09-25T09:04:08.943Z,98781.44
2022-09-25T09:05:31.512Z,98788.56
2022-09-25T09:06:35.810Z,98783.22
2022-09-25T09:07:58.701Z,98783.72
2022-09-25T09:09:12.446Z,98772.75
2022-09-25T09:10:32.883Z,98778.66
2022-09-25T09:11:41.464Z,98767.53
2022-09-25T09:12:53.606Z,98773.63
2022-09-25T09:14:04.674Z,98769.06
2022-09-25T09:15:16.313Z,98773.69
2022-09-25T09:16:30.390Z,98776.44
2022-09-25T09:17:41.559Z,98781.19
2022-09-25T09:18:44.154Z,98783.88
2022-09-25T09:19:50.394Z,98779.81
2022-09-25T09:20:58.164Z,98784.25
2022-09-25T09:22:11.024Z,98781.72
2022-09-25T09:23:19.168Z,98784.50
2022-09-25T09:24:48.805Z,98794.06
2022-09-25T09:25:57.756Z,98783.59
2022-09-25T09:27:14.822Z,98777.34
2022-09-25T09:28:54.308Z,98792.47
2022-09-25T09:30:10.534Z,98793.31
2022-09-25T09:31:46.828Z,98801.44
2022-09-25T09:33:06.962Z,98793.69
2022-09-25T09:35:01.135Z,98793.78
2022-09-25T09:36:20.067Z,98799.31
2022-09-25T09:37:53.086Z,98799.75
2022-09-25T09:39:14.084Z,98796.25
2022-09-25T09:40:19.189Z,98812.09
2022-09-25T09:42:09.174Z,98792.97
2022-09-25T09:43:32.852Z,98804.47
2022-09-25T09:44:54.500Z,98804.38
2022-09-25T09:46:07.805Z,98801.69
2022-09-25T09:47:43.775Z,98801.13
2022-09-25T09:49:20.287Z,98795.97
2022-09-25T09:50:41.820Z,98798.81
2022-09-25T09:52:00.709Z,98791.41
2022-09-25T09:53:09.887Z,98787.44
2022-09-25T09:54:21.299Z,98783.22
2022-09-25T09:55:45.124Z,98785.47
2022-09-25T09:56:50.554Z,98788.25
2022-09-25T09:57:56.279Z,98789.91
2022-09-25T09:59:03.457Z,98795.47
2022-09-25T10:00:16.486Z,98792.50
2022-09-25T10:02:54.291Z,98801.00
2022-09-25T10:04:18.647Z,98801.25
2022-09-25T10:05:44.629Z,98811.06
2022-09-25T10:06:53.771Z,98811.41
2022-09-25T10:07:56.430Z,98803.28
2022-09-25T10:08:59.230Z,98804.16
2022-09-25T10:10:01.940Z,98808.06
2022-09-25T10:11:12.242Z,98811.50
2022-09-25T10:12:35.905Z,98800.66
2022-09-25T10:13:40.014Z,98799.75
2022-09-25T10:14:46.175Z,98792.06
2022-09-25T10:16:15.122Z,98798.03
2022-09-25T10:17:19.748Z,98811.50
2022-09-25T10:18:28.001Z,98795.94
2022-09-25T10:19:42.186Z,98804.22
2022-09-25T10:20:46.664Z,98807.19
2022-09-25T10:21:59.502Z,98806.06
2022-09-25T10:23:04.857Z,98797.09
2022-09-25T10:24:07.512Z,98796.94
2022-09-25T10:25:10.271Z,98789.97
2022-09-25T10:26:27.842Z,98805.50
2022-09-25T10:27:41.346Z,98794.56
2022-09-25T10:28:46.819Z,98797.06
2022-09-25T10:30:09.952Z,98795.81
2022-09-25T10:31:12.974Z,98791.50
2022-09-25T10:32:17.278Z,98790.63
2022-09-25T10:33:23.423Z,98792.19
2022-09-25T10:34:28.176Z,98793.31
2022-09-25T10:35:39.626Z,98797.09
2022-09-25T10:36:45.110Z,98793.66
2022-09-25T10:37:55.561Z,98800.38
2022-09-25T10:39:18.085Z,98794.81
2022-09-25T10:40:35.005Z,98799.84
2022-09-25T10:41:43.488Z,98805.47
2022-09-25T10:42:45.947Z,98797.03
2022-09-25T10:43:56.999Z,98803.41
2022-09-25T10:44:59.351Z,98804.00
2022-09-25T10:46:08.336Z,98797.38
2022-09-25T10:47:38.311Z,98790.91
2022-09-25T10:49:01.430Z,98796.69
2022-09-25T10:50:13.433Z,98798.91
2022-09-25T10:51:18.098Z,98796.34
2022-09-25T10:52:22.375Z,98786.91
2022-09-25T10:53:30.131Z,98785.00
2022-09-25T10:54:40.316Z,98794.56
2022-09-25T10:55:51.477Z,98795.94
2022-09-25T10:56:53.843Z,98794.66
2022-09-25T10:58:10.641Z,98791.34
2022-09-25T10:59:21.412Z,98791.63
2022-09-25T11:00:25.595Z,98795.88
2022-09-25T11:01:36.939Z,98799.81
2022-09-25T11:02:46.614Z,98796.22
2022-09-25T11:03:52.949Z,98812.69
2022-09-25T11:05:04.315Z,98810.81
2022-09-25T11:06:22.357Z,98814.22
2022-09-25T11:07:27.806Z,98805.78
2022-09-25T11:08:34.322Z,98812.00
2022-09-25T11:09:44.757Z,98806.56
2022-09-25T11:10:58.205Z,98815.19
2022-09-25T11:12:07.895Z,98808.44
2022-09-25T11:13:24.241Z,98806.44
2022-09-25T11:14:32.580Z,98823.34
2022-09-25T11:15:38.924Z,98813.19
2022-09-25T11:16:54.657Z,98826.88
2022-09-25T11:17:58.536Z,98829.31
2022-09-25T11:19:23.224Z,98825.38
2022-09-25T11:20:29.840Z,98826.00
2022-09-25T11:21:38.702Z,98829.16
2022-09-25T11:22:43.623Z,98832.50
2022-09-25T11:24:01.341Z,98834.03
2022-09-25T11:25:15.898Z,98837.72
2022-09-25T11:26:28.369Z,98841.03
2022-09-25T11:27:34.748Z,98845.81
2022-09-25T11:28:57.623Z,98849.41
2022-09-25T11:30:06.708Z,98851.34
2022-09-25T11:31:31.044Z,98843.78
2022-09-25T11:32:54.279Z,98848.97
2022-09-25T11:34:12.806Z,98849.47
2022-09-25T11:35:42.915Z,98857.22
2022-09-25T11:36:49.348Z,98849.81
2022-09-25T11:38:09.647Z,98855.84
2022-09-25T11:39:39.324Z,98854.28
2022-09-25T11:41:12.397Z,98846.25
2022-09-25T11:42:38.773Z,98849.97
2022-09-25T11:44:04.491Z,98854.66
2022-09-25T11:45:24.212Z,98854.50
2022-09-25T11:46:50.222Z,98846.28
2022-09-25T11:48:05.360Z,98854.09
2022-09-25T11:49:20.011Z,98855.94
2022-09-25T11:50:46.498Z,98850.63
2022-09-25T11:52:02.472Z,98847.69
2022-09-25T11:53:33.540Z,98843.16
2022-09-25T11:54:57.418Z,98842.75
2022-09-25T11:56:18.353Z,98840.13
2022-09-25T11:57:35.419Z,98844.25
2022-09-25T11:58:53.296Z,98839.44
2022-09-25T12:00:11.518Z,98844.56
2022-09-25T12:01:16.804Z,98849.94
2022-09-25T12:02:58.230Z,98844.06
2022-09-25T12:04:13.571Z,98848.00
2022-09-25T12:05:27.431Z,98843.09
2022-09-25T12:06:55.099Z,98847.94
2022-09-25T12:08:06.033Z,98843.38
2022-09-25T12:09:20.086Z,98846.81
2022-09-25T12:10:46.825Z,98840.03
2022-09-25T12:11:54.721Z,98843.16
2022-09-25T12:13:20.711Z,98836.81
2022-09-25T12:14:28.516Z,98845.63
2022-09-25T12:15:42.336Z,98846.41
2022-09-25T12:17:08.999Z,98849.78
2022-09-25T12:18:43.728Z,98854.16
2022-09-25T12:20:26.505Z,98847.28
2022-09-25T12:21:41.698Z,98837.44
2022-09-25T12:23:17.713Z,98842.50
2022-09-25T12:24:34.870Z,98839.34
2022-09-25T12:25:50.192Z,98837.59
2022-09-25T12:27:30.271Z,98840.19
2022-09-25T12:29:04.157Z,98844.34
2022-09-25T12:30:22.871Z,98837.28
2022-09-25T12:31:31.189Z,98842.28
2022-09-25T12:32:45.625Z,98845.94
2022-09-25T12:34:26.810Z,98845.53
2022-09-25T12:35:42.190Z,98848.94
2022-09-25T12:37:13.071Z,98843.00
2022-09-25T12:38:29.406Z,98848.66
2022-09-25T12:39:40.441Z,98856.94
2022-09-25T12:40:51.042Z,98835.47
2022-09-25T12:42:04.742Z,98840.63
2022-09-25T12:43:14.716Z,98841.63
2022-09-25T12:44:23.685Z,98842.19
2022-09-25T12:45:32.007Z,98841.88
2022-09-25T12:46:42.513Z,98838.56
2022-09-25T12:47:57.776Z,98839.47
2022-09-25T12:49:34.805Z,98843.28
2022-09-25T12:50:46.599Z,98839.25
2022-09-25T12:51:51.289Z,98831.19
2022-09-25T12:53:09.420Z,98821.81
2022-09-25T12:54:17.486Z,98836.09
2022-09-25T12:55:32.216Z,98827.94
2022-09-25T12:56:43.859Z,98839.16
2022-09-25T12:58:18.451Z,98830.03
2022-09-25T12:59:41.491Z,98835.91
2022-09-25T13:00:52.214Z,98833.94
2022-09-25T13:02:07.104Z,98834.47
2022-09-25T13:03:18.133Z,98825.94
2022-09-25T13:04:33.965Z,98828.28
2022-09-25T13:05:59.087Z,98822.66
2022-09-25T13:07:05.121Z,98821.75
2022-09-25T13:08:19.198Z,98832.78
2022-09-25T13:09:33.348Z,98829.00
2022-09-25T13:10:46.539Z,98832.78
2022-09-25T13:12:35.968Z,98825.72
2022-09-25T13:13:45.483Z,98834.41
2022-09-25T13:15:00.656Z,98824.53
2022-09-25T13:16:03.456Z,98822.47
2022-09-25T13:17:10.614Z,98820.38
2022-09-25T13:18:18.180Z,98833.47
2022-09-25T13:19:35.114Z,98828.47
2022-09-25T13:20:37.698Z,98818.59
2022-09-25T13:21:43.025Z,98818.59
2022-09-25T13:22:45.251Z,98822.19
2022-09-25T13:23:51.687Z,98833.81
2022-09-25T13:25:13.833Z,98830.75
2022-09-25T13:26:19.004Z,98833.09
2022-09-25T13:27:24.307Z,98825.31
2022-09-25T13:28:33.534Z,98828.41
2022-09-25T13:29:39.008Z,98833.28
2022-09-25T13:31:06.725Z,98836.91
2022-09-25T13:32:16.241Z,98843.03
2022-09-25T13:33:21.150Z,98839.38